Time;durP1;ratioP1;P1;durP2;ratioP2;P2;SDS_P1;SDS_P2;PMS_P1;PMS_P2;Temp;Humidity;BMP_temperature;BMP_pressure;BME280_temperature;BME280_humidity;BME280_pressure;Samples;Min_cycle;Max_cycle;Signal;HPM_P1;HPM_P2
2023/03/21 00:02:02;;;;;;;0.10;0.10;;;9.00;95.20;;;;;;5031667;28;20132;-69
2023/03/21 00:04:27;;;;;;;0.10;0.10;;;9.00;95.10;;;;;;5014626;28;20441;-69
2023/03/21 00:06:53;;;;;;;0.52;0.47;;;9.00;95.20;;;;;;4997897;28;20056;-69
2023/03/21 00:09:19;;;;;;;0.00;0.00;;;9.00;95.20;;;;;;5031468;28;20251;-68
2023/03/21 00:11:45;;;;;;;0.00;0.00;;;9.00;95.20;;;;;;5031881;28;20033;-68
2023/03/21 00:14:13;;;;;;;1.50;1.40;;;9.00;95.20;;;;;;5031796;28;20560;-68
2023/03/21 00:16:39;;;;;;;1.60;0.85;;;9.00;95.20;;;;;;4997315;28;20053;-67
2023/03/21 00:19:06;;;;;;;0.75;0.75;;;8.90;95.20;;;;;;5031264;28;20048;-68
2023/03/21 00:21:37;;;;;;;0.00;0.00;;;8.90;95.20;;;;;;5027840;28;20077;-68
2023/03/21 00:24:03;;;;;;;0.40;0.30;;;9.00;95.30;;;;;;5011714;28;20136;-68
2023/03/21 00:26:30;;;;;;;0.13;0.13;;;9.00;95.20;;;;;;4999538;28;20051;-68
2023/03/21 00:28:56;;;;;;;0.00;0.00;;;9.00;95.20;;;;;;5030457;28;20052;-68
2023/03/21 00:31:22;;;;;;;0.00;0.00;;;8.90;95.20;;;;;;5031095;28;20033;-68
2023/03/21 00:33:47;;;;;;;0.00;0.00;;;8.90;95.30;;;;;;5031634;28;20100;-68
2023/03/21 00:36:13;;;;;;;0.08;0.08;;;9.00;95.30;;;;;;5031398;28;20249;-68
2023/03/21 00:38:39;;;;;;;0.45;0.45;;;9.00;95.30;;;;;;5032062;28;20099;-68
2023/03/21 00:41:06;;;;;;;1.30;1.20;;;9.00;95.30;;;;;;5028445;28;20056;-69
2023/03/21 00:43:32;;;;;;;0.45;0.45;;;9.00;95.30;;;;;;5011860;28;20069;-69
2023/03/21 00:45:58;;;;;;;0.05;0.05;;;9.00;95.30;;;;;;5021083;28;20061;-68
2023/03/21 00:48:25;;;;;;;0.00;0.00;;;9.00;95.20;;;;;;5029676;28;20629;-68
2023/03/21 00:50:53;;;;;;;0.00;0.00;;;9.00;95.20;;;;;;5030996;28;20840;-68
2023/03/21 00:53:19;;;;;;;0.10;0.10;;;9.00;95.30;;;;;;5030713;28;20103;-68
2023/03/21 00:55:45;;;;;;;0.03;0.03;;;9.00;95.30;;;;;;5030916;28;20045;-68
2023/03/21 00:58:10;;;;;;;0.10;0.10;;;9.00;95.30;;;;;;5031081;28;20423;-68
2023/03/21 01:00:36;;;;;;;0.13;0.13;;;9.10;95.40;;;;;;5030680;28;20047;-68
2023/03/21 01:03:06;;;;;;;0.30;0.30;;;9.00;95.30;;;;;;5029952;28;20120;-68
2023/03/21 01:08:22;;;;;;;0.00;0.00;;;9.00;95.30;;;;;;5030935;28;20586;-68
2023/03/21 01:10:49;;;;;;;0.00;0.00;;;9.10;95.30;;;;;;5020354;28;20049;-68
2023/03/21 01:13:17;;;;;;;0.63;0.63;;;9.10;95.30;;;;;;5018915;28;20041;-69
2023/03/21 01:15:48;;;;;;;0.28;0.28;;;9.00;95.30;;;;;;5012670;28;20057;-68
2023/03/21 01:18:15;;;;;;;0.07;0.07;;;9.10;95.30;;;;;;5030134;28;20046;-68
2023/03/21 01:20:42;;;;;;;0.00;0.00;;;9.00;95.30;;;;;;5030498;28;20041;-69
2023/03/21 01:23:09;;;;;;;0.08;0.05;;;9.00;95.30;;;;;;5030616;28;20045;-69
2023/03/21 01:25:35;;;;;;;0.52;0.28;;;9.10;95.30;;;;;;5030337;28;20132;-68
2023/03/21 01:28:01;;;;;;;0.00;0.00;;;9.10;95.30;;;;;;4996161;28;20197;-68
2023/03/21 01:30:26;;;;;;;0.10;0.10;;;9.10;95.30;;;;;;5030195;28;20048;-68
2023/03/21 01:32:52;;;;;;;0.35;0.35;;;9.10;95.30;;;;;;5030139;28;20520;-68
2023/03/21 01:35:17;;;;;;;0.00;0.00;;;9.10;95.30;;;;;;5030362;28;20045;-68
2023/03/21 01:37:43;;;;;;;1.15;0.70;;;9.10;95.30;;;;;;5030029;28;20048;-68
2023/03/21 01:40:16;;;;;;;0.00;0.00;;;9.10;95.30;;;;;;5020569;28;20487;-68
2023/03/21 01:42:42;;;;;;;1.17;0.52;;;9.10;95.30;;;;;;5013444;28;20047;-68
2023/03/21 01:45:46;;;;;;;0.00;0.00;;;9.10;95.30;;;;;;5028992;28;20057;-68
2023/03/21 01:48:12;;;;;;;1.20;0.93;;;9.10;95.30;;;;;;5014049;28;20046;-69
2023/03/21 01:50:39;;;;;;;0.00;0.00;;;9.00;95.30;;;;;;5012291;28;20110;-69
2023/03/21 01:53:05;;;;;;;0.08;0.08;;;9.10;95.30;;;;;;5029733;28;20065;-69
2023/03/21 01:55:31;;;;;;;0.00;0.00;;;9.00;95.20;;;;;;5029755;28;20069;-68
2023/03/21 01:57:58;;;;;;;0.57;0.57;;;9.10;95.30;;;;;;5029794;28;20037;-68
2023/03/21 02:00:28;;;;;;;0.00;0.00;;;9.10;95.30;;;;;;5029760;28;20053;-68
2023/03/21 02:02:54;;;;;;;0.08;0.08;;;9.10;95.20;;;;;;5029832;28;20088;-68
2023/03/21 02:05:47;;;;;;;0.00;0.00;;;9.10;95.20;;;;;;5029811;28;20045;-68
2023/03/21 02:08:13;;;;;;;0.00;0.00;;;9.10;95.30;;;;;;5029934;28;20096;-68
2023/03/21 02:10:41;;;;;;;0.00;0.00;;;9.00;95.20;;;;;;5008310;28;20897;-68
2023/03/21 02:13:10;;;;;;;0.55;0.55;;;9.00;95.20;;;;;;5009346;28;20057;-68
2023/03/21 02:15:43;;;;;;;0.10;0.10;;;9.10;95.30;;;;;;4992303;28;20097;-69
2023/03/21 02:18:24;;;;;;;0.00;0.00;;;9.10;95.20;;;;;;4986097;28;20044;-69
2023/03/21 02:21:01;;;;;;;0.00;0.00;;;9.10;95.20;;;;;;5029662;28;20046;-68
2023/03/21 02:23:46;;;;;;;0.10;0.10;;;9.10;95.20;;;;;;5029556;28;20457;-69
2023/03/21 02:26:36;;;;;;;0.00;0.00;;;9.10;95.20;;;;;;5029054;28;20053;-68
2023/03/21 02:29:17;;;;;;;0.00;0.00;;;9.10;95.20;;;;;;5028792;28;20048;-68
2023/03/21 02:32:09;;;;;;;0.00;0.00;;;9.10;95.20;;;;;;5029354;28;20566;-68
2023/03/21 02:34:47;;;;;;;0.10;0.10;;;9.10;95.20;;;;;;5029465;28;20052;-68
2023/03/21 02:37:27;;;;;;;0.00;0.00;;;9.10;95.20;;;;;;5028955;28;20494;-69
2023/03/21 02:40:15;;;;;;;0.00;0.00;;;9.10;95.20;;;;;;5013628;28;20112;-69
2023/03/21 02:43:14;;;;;;;0.00;0.00;;;9.10;95.10;;;;;;5009565;28;20054;-68
2023/03/21 02:45:48;;;;;;;0.10;0.10;;;9.10;95.10;;;;;;4991277;28;20824;-69
2023/03/21 02:48:22;;;;;;;0.00;0.00;;;9.10;95.20;;;;;;5025679;28;20060;-68
2023/03/21 02:50:51;;;;;;;0.00;0.00;;;9.10;95.20;;;;;;5028360;28;20382;-69
2023/03/21 02:53:21;;;;;;;0.10;0.10;;;9.10;95.20;;;;;;5027470;28;20041;-68
2023/03/21 02:55:48;;;;;;;0.00;0.00;;;9.10;95.20;;;;;;5027386;28;20042;-69
2023/03/21 02:58:20;;;;;;;0.00;0.00;;;9.10;95.10;;;;;;5028514;28;20052;-68
2023/03/21 03:00:46;;;;;;;;;;;9.10;95.10;;;;;;5029238;28;20525;-68
2023/03/21 03:03:12;;;;;;;0.00;0.00;;;9.10;95.10;;;;;;4994904;28;19928;-69
2023/03/21 03:05:46;;;;;;;0.10;0.10;;;9.10;95.10;;;;;;5028973;28;20099;-68
2023/03/21 03:08:26;;;;;;;0.00;0.00;;;9.10;95.20;;;;;;5028950;28;20056;-69
2023/03/21 03:11:13;;;;;;;0.00;0.00;;;9.10;95.20;;;;;;5014326;28;20053;-69
2023/03/21 03:13:51;;;;;;;0.00;0.00;;;9.10;95.20;;;;;;5011122;28;20120;-68
2023/03/21 03:16:35;;;;;;;0.63;0.63;;;9.10;95.10;;;;;;5015401;28;20054;-68
2023/03/21 03:19:06;;;;;;;0.28;0.28;;;9.10;95.20;;;;;;5015272;28;20072;-69
2023/03/21 03:21:37;;;;;;;0.00;0.00;;;9.10;95.20;;;;;;5029048;28;20589;-69
2023/03/21 03:24:12;;;;;;;0.00;0.00;;;9.10;95.10;;;;;;5030156;28;20095;-70
2023/03/21 03:26:44;;;;;;;0.00;0.00;;;9.10;95.20;;;;;;5032510;28;20092;-68
2023/03/21 03:29:15;;;;;;;0.10;0.10;;;9.10;95.20;;;;;;5032578;28;20087;-69
2023/03/21 03:31:51;;;;;;;0.10;0.10;;;9.10;95.10;;;;;;5031355;28;20045;-69
2023/03/21 03:34:25;;;;;;;0.00;0.00;;;9.10;95.10;;;;;;5016823;28;20721;-69
2023/03/21 03:36:55;;;;;;;0.38;0.38;;;9.10;95.10;;;;;;5022543;28;20494;-69
2023/03/21 03:39:26;;;;;;;0.05;0.05;;;9.10;95.00;;;;;;5011896;28;20423;-68
2023/03/21 03:42:02;;;;;;;0.20;0.20;;;9.10;95.20;;;;;;5011608;28;20070;-69
2023/03/21 03:44:28;;;;;;;0.00;0.00;;;9.10;95.10;;;;;;5013503;28;20042;-69
2023/03/21 03:47:06;;;;;;;0.00;0.00;;;9.10;95.10;;;;;;5028026;28;20099;-68
2023/03/21 03:49:42;;;;;;;0.00;0.00;;;9.10;95.10;;;;;;5030251;28;20053;-69
2023/03/21 03:52:15;;;;;;;0.00;0.00;;;9.10;95.10;;;;;;5029648;28;20172;-69
2023/03/21 03:54:44;;;;;;;0.10;0.10;;;9.10;95.10;;;;;;4999063;28;20057;-69
2023/03/21 03:57:12;;;;;;;0.00;0.00;;;9.10;95.10;;;;;;5013304;28;20033;-69
2023/03/21 03:59:40;;;;;;;0.00;0.00;;;9.10;95.10;;;;;;5021198;28;20046;-69
2023/03/21 04:02:06;;;;;;;0.00;0.00;;;9.10;95.10;;;;;;5021732;28;20116;-68
2023/03/21 04:04:33;;;;;;;0.00;0.00;;;9.10;95.20;;;;;;5020321;28;20183;-68
2023/03/21 04:06:59;;;;;;;0.00;0.00;;;9.10;95.20;;;;;;5030010;28;20041;-69
2023/03/21 04:09:27;;;;;;;0.03;0.03;;;9.10;95.10;;;;;;4995886;28;20067;-69
2023/03/21 04:11:53;;;;;;;0.68;0.60;;;9.10;95.20;;;;;;5018522;28;20048;-68
2023/03/21 04:14:19;;;;;;;0.00;0.00;;;9.10;95.20;;;;;;5031116;28;20045;-68
2023/03/21 04:16:45;;;;;;;0.00;0.00;;;9.10;95.20;;;;;;5030816;28;20029;-68
2023/03/21 04:19:11;;;;;;;0.10;0.10;;;9.10;95.20;;;;;;5014231;28;20077;-68
2023/03/21 04:21:37;;;;;;;0.00;0.00;;;9.10;95.20;;;;;;5031712;28;20520;-69
2023/03/21 04:24:03;;;;;;;0.00;0.00;;;9.10;95.20;;;;;;5013910;28;20034;-68
2023/03/21 04:26:31;;;;;;;1.30;1.08;;;9.10;95.20;;;;;;5031638;28;20422;-69
2023/03/21 04:29:01;;;;;;;1.65;1.55;;;9.10;95.20;;;;;;5031693;28;20123;-68
2023/03/21 04:31:29;;;;;;;0.00;0.00;;;9.10;95.20;;;;;;5029836;28;20077;-68
2023/03/21 04:33:56;;;;;;;0.00;0.00;;;9.10;95.20;;;;;;5030947;28;20095;-68
2023/03/21 04:36:37;;;;;;;0.00;0.00;;;9.10;95.20;;;;;;5028161;28;20461;-68
2023/03/21 04:39:05;;;;;;;0.00;0.00;;;9.10;95.20;;;;;;4994210;28;20087;-68
2023/03/21 04:41:31;;;;;;;0.00;0.00;;;9.10;95.20;;;;;;4993951;28;20046;-68
2023/03/21 04:43:56;;;;;;;0.47;0.30;;;9.10;95.20;;;;;;5024197;28;20041;-68
2023/03/21 04:46:23;;;;;;;0.08;0.08;;;9.10;95.20;;;;;;5031547;28;20422;-68
2023/03/21 04:48:48;;;;;;;0.00;0.00;;;9.10;95.20;;;;;;5031283;28;20149;-68
2023/03/21 04:51:15;;;;;;;0.00;0.00;;;9.10;95.20;;;;;;5028764;28;20553;-68
2023/03/21 04:53:43;;;;;;;0.00;0.00;;;9.10;95.20;;;;;;5021416;28;20124;-68
2023/03/21 04:56:10;;;;;;;0.00;0.00;;;9.10;95.20;;;;;;5024650;28;20107;-69
2023/03/21 04:58:36;;;;;;;0.00;0.00;;;9.10;95.20;;;;;;5022462;28;20111;-69
2023/03/21 05:01:04;;;;;;;0.00;0.00;;;9.10;95.20;;;;;;5017573;28;20494;-69
2023/03/21 05:03:33;;;;;;;1.25;0.65;;;9.10;95.20;;;;;;5023616;28;20457;-69
2023/03/21 05:06:02;;;;;;;0.00;0.00;;;9.10;95.20;;;;;;5024606;28;20088;-69
2023/03/21 05:08:27;;;;;;;0.75;0.55;;;9.10;95.20;;;;;;5022343;28;20037;-69
2023/03/21 05:10:53;;;;;;;0.08;0.08;;;9.10;95.20;;;;;;5018556;28;20553;-69
2023/03/21 05:13:19;;;;;;;0.00;0.00;;;9.10;95.20;;;;;;5019280;28;20076;-69
2023/03/21 05:15:45;;;;;;;0.00;0.00;;;9.10;95.20;;;;;;5023268;28;20653;-69
2023/03/21 05:18:11;;;;;;;0.00;0.00;;;9.10;95.20;;;;;;5020606;28;20037;-69
2023/03/21 05:20:41;;;;;;;0.10;0.10;;;9.10;95.20;;;;;;5026797;28;20402;-69
2023/03/21 05:23:09;;;;;;;0.20;0.20;;;9.10;95.20;;;;;;5020625;28;20041;-69
2023/03/21 05:25:36;;;;;;;0.00;0.00;;;9.10;95.20;;;;;;5010498;28;20061;-69
2023/03/21 05:28:03;;;;;;;0.20;0.20;;;9.10;95.20;;;;;;5022942;28;20049;-69
2023/03/21 05:30:29;;;;;;;1.95;0.57;;;9.10;95.20;;;;;;5024827;28;20509;-69
2023/03/21 05:32:55;;;;;;;0.28;0.28;;;9.10;95.20;;;;;;5017763;28;20034;-69
2023/03/21 05:35:21;;;;;;;0.00;0.00;;;9.10;95.20;;;;;;5014606;28;20128;-69
2023/03/21 05:37:46;;;;;;;0.00;0.00;;;9.10;95.20;;;;;;5001631;28;20514;-69
2023/03/21 05:40:12;;;;;;;0.10;0.10;;;9.10;95.20;;;;;;5009488;28;20443;-69
2023/03/21 05:42:38;;;;;;;0.00;0.00;;;9.10;95.20;;;;;;5003470;28;20405;-69
2023/03/21 05:45:04;;;;;;;0.00;0.00;;;9.10;95.30;;;;;;5003844;28;20048;-69
2023/03/21 05:47:30;;;;;;;0.10;0.10;;;9.10;95.30;;;;;;5020694;28;20850;-69
2023/03/21 05:49:56;;;;;;;0.00;0.00;;;9.10;95.30;;;;;;5026645;28;20041;-69
2023/03/21 05:52:21;;;;;;;0.00;0.00;;;9.20;95.30;;;;;;5014248;28;20121;-69
2023/03/21 05:54:47;;;;;;;0.00;0.00;;;9.10;95.20;;;;;;5009192;28;20046;-69
2023/03/21 05:57:13;;;;;;;0.10;0.10;;;9.20;95.20;;;;;;5027140;28;20060;-69
2023/03/21 05:59:38;;;;;;;0.05;0.05;;;9.10;95.20;;;;;;5014042;28;20046;-69
2023/03/21 06:02:04;;;;;;;0.00;0.00;;;9.10;95.20;;;;;;5018149;28;20128;-69
2023/03/21 06:04:30;;;;;;;0.73;0.73;;;9.10;95.20;;;;;;5022600;28;20041;-69
2023/03/21 06:06:55;;;;;;;0.00;0.00;;;9.10;95.20;;;;;;4996522;28;20041;-69
2023/03/21 06:09:22;;;;;;;0.00;0.00;;;9.20;95.20;;;;;;5025973;28;20064;-69
2023/03/21 06:11:50;;;;;;;0.40;0.40;;;9.10;95.20;;;;;;5025545;28;20042;-69
2023/03/21 06:14:16;;;;;;;0.20;0.20;;;9.10;95.20;;;;;;5026773;28;20077;-69
2023/03/21 06:16:43;;;;;;;0.00;0.00;;;9.10;95.20;;;;;;4981693;28;20052;-69
2023/03/21 06:19:08;;;;;;;0.03;0.03;;;9.10;95.30;;;;;;5022980;28;20045;-68
2023/03/21 06:21:34;;;;;;;0.00;0.00;;;9.10;95.20;;;;;;5021012;28;20045;-66
2023/03/21 06:24:00;;;;;;;0.73;0.38;;;9.20;95.20;;;;;;5019031;28;20050;-68
2023/03/21 06:26:26;;;;;;;0.00;0.00;;;9.10;95.20;;;;;;5010973;28;20117;-68
2023/03/21 06:28:53;;;;;;;0.10;0.10;;;9.10;95.30;;;;;;5003828;28;20120;-69
2023/03/21 06:31:21;;;;;;;0.00;0.00;;;9.10;95.20;;;;;;5027486;28;20042;-69
2023/03/21 06:33:47;;;;;;;0.05;0.05;;;9.10;95.20;;;;;;5009151;28;20524;-69
2023/03/21 06:36:13;;;;;;;0.08;0.08;;;9.10;95.30;;;;;;5027253;28;20040;-69
2023/03/21 06:38:39;;;;;;;0.03;0.03;;;9.10;95.20;;;;;;5018601;28;20042;-68
2023/03/21 06:41:06;;;;;;;0.05;0.05;;;9.10;95.20;;;;;;5015719;28;20088;-69
2023/03/21 06:43:32;;;;;;;0.10;0.10;;;9.10;95.20;;;;;;5013007;28;20046;-68
2023/03/21 06:45:59;;;;;;;0.25;0.25;;;9.20;95.20;;;;;;5013917;28;20142;-69
2023/03/21 06:48:26;;;;;;;0.00;0.00;;;9.20;95.20;;;;;;5021962;28;20087;-69
2023/03/21 06:50:52;;;;;;;0.03;0.03;;;9.20;95.20;;;;;;5015536;28;20057;-72
2023/03/21 06:53:19;;;;;;;0.00;0.00;;;9.20;95.20;;;;;;5024246;28;20068;-69
2023/03/21 06:55:49;;;;;;;0.15;0.15;;;9.10;95.20;;;;;;5025566;28;20045;-76
2023/03/21 06:58:15;;;;;;;0.00;0.00;;;9.10;95.20;;;;;;5026803;28;20061;-75
2023/03/21 07:00:41;;;;;;;0.00;0.00;;;9.20;95.30;;;;;;5024778;28;20041;-75
2023/03/21 07:03:06;;;;;;;0.00;0.00;;;9.10;95.20;;;;;;5028060;28;20057;-73
2023/03/21 07:05:35;;;;;;;0.08;0.08;;;9.20;95.30;;;;;;5018661;28;20096;-72
2023/03/21 07:08:01;;;;;;;0.30;0.30;;;9.20;95.20;;;;;;5007291;28;20079;-72
2023/03/21 07:10:26;;;;;;;0.17;0.17;;;9.20;95.20;;;;;;5028166;28;20155;-72
2023/03/21 07:12:52;;;;;;;0.00;0.00;;;9.20;95.20;;;;;;5027270;28;20128;-74
2023/03/21 07:15:18;;;;;;;0.00;0.00;;;9.20;95.20;;;;;;5026624;28;20046;-72
2023/03/21 07:17:43;;;;;;;0.05;0.05;;;9.20;95.30;;;;;;5024901;28;20116;-73
2023/03/21 07:20:11;;;;;;;0.05;0.05;;;9.20;95.20;;;;;;5027006;28;20045;-72
2023/03/21 07:22:37;;;;;;;0.10;0.10;;;9.20;95.20;;;;;;5029108;28;20092;-72
2023/03/21 07:25:03;;;;;;;0.00;0.00;;;9.20;95.20;;;;;;5013093;28;20073;-72
2023/03/21 07:27:29;;;;;;;0.10;0.10;;;9.20;95.20;;;;;;5020739;28;20037;-72
2023/03/21 07:29:55;;;;;;;0.03;0.03;;;9.20;95.30;;;;;;5011057;28;20482;-72
2023/03/21 07:32:20;;;;;;;0.00;0.00;;;9.20;95.10;;;;;;5009821;28;20120;-70
2023/03/21 07:34:46;;;;;;;0.80;0.75;;;9.20;95.20;;;;;;5020680;28;20045;-71
2023/03/21 07:37:12;;;;;;;0.00;0.00;;;9.20;95.20;;;;;;5009509;28;20057;-70
2023/03/21 07:39:37;;;;;;;0.00;0.00;;;9.20;95.20;;;;;;4981817;28;20052;-70
2023/03/21 07:42:03;;;;;;;0.10;0.10;;;9.20;95.20;;;;;;5016098;28;20046;-70
2023/03/21 07:44:29;;;;;;;0.00;0.00;;;9.20;95.20;;;;;;5014724;28;20042;-70
2023/03/21 07:46:55;;;;;;;0.00;0.00;;;9.20;95.20;;;;;;5016331;28;20053;-67
2023/03/21 07:49:20;;;;;;;0.00;0.00;;;9.20;95.10;;;;;;4999046;28;20042;-67
2023/03/21 07:51:46;;;;;;;0.10;0.10;;;9.30;95.10;;;;;;4998555;28;20073;-67
2023/03/21 07:54:12;;;;;;;0.00;0.00;;;9.20;95.10;;;;;;5016695;28;20063;-67
2023/03/21 07:56:37;;;;;;;1.20;0.85;;;9.20;95.10;;;;;;5017462;28;20046;-67
2023/03/21 07:59:04;;;;;;;0.03;0.03;;;9.30;95.10;;;;;;5017399;28;20126;-67
2023/03/21 08:01:30;;;;;;;0.00;0.00;;;9.30;95.00;;;;;;5016100;28;20108;-66
2023/03/21 08:03:55;;;;;;;0.22;0.22;;;9.20;95.00;;;;;;5016407;28;20782;-67
2023/03/21 08:06:22;;;;;;;0.00;0.00;;;9.30;95.00;;;;;;5017639;28;20046;-67
2023/03/21 08:08:48;;;;;;;0.10;0.10;;;9.20;95.10;;;;;;5018216;28;20035;-67
2023/03/21 08:11:14;;;;;;;0.10;0.10;;;9.30;95.10;;;;;;5017359;28;20104;-67
2023/03/21 08:13:40;;;;;;;0.00;0.00;;;9.30;95.10;;;;;;5018828;28;20034;-66
2023/03/21 08:16:06;;;;;;;0.00;0.00;;;9.20;95.10;;;;;;5018296;28;20380;-66
2023/03/21 08:18:32;;;;;;;0.00;0.00;;;9.30;95.10;;;;;;5020357;28;20722;-66
2023/03/21 08:20:58;;;;;;;0.10;0.10;;;9.30;95.10;;;;;;5013156;28;20037;-66
2023/03/21 08:23:24;;;;;;;0.00;0.00;;;9.30;95.00;;;;;;5019882;28;20069;-66
2023/03/21 08:25:54;;;;;;;0.10;0.05;;;9.30;95.00;;;;;;5018381;28;20392;-67
2023/03/21 08:28:22;;;;;;;0.00;0.00;;;9.30;95.00;;;;;;5019598;28;20034;-66
2023/03/21 08:30:49;;;;;;;0.15;0.15;;;9.40;95.10;;;;;;5019525;28;20132;-66
2023/03/21 08:33:17;;;;;;;0.20;0.20;;;9.40;95.10;;;;;;5015093;28;20041;-67
2023/03/21 08:35:43;;;;;;;0.00;0.00;;;9.40;95.00;;;;;;5019478;28;20126;-67
2023/03/21 08:38:09;;;;;;;0.00;0.00;;;9.40;95.00;;;;;;5017613;28;20118;-67
2023/03/21 08:40:35;;;;;;;0.00;0.00;;;9.50;95.10;;;;;;5015109;28;20120;-67
2023/03/21 08:43:01;;;;;;;0.00;0.00;;;9.50;95.00;;;;;;5018096;28;20489;-67
2023/03/21 08:45:26;;;;;;;0.55;0.55;;;9.40;94.90;;;;;;5017243;28;20132;-67
2023/03/21 08:47:53;;;;;;;0.65;0.65;;;9.40;95.00;;;;;;5018662;28;20188;-67
2023/03/21 08:50:21;;;;;;;0.00;0.00;;;9.50;95.00;;;;;;5018571;28;20061;-66
2023/03/21 08:52:48;;;;;;;0.00;0.00;;;9.50;95.00;;;;;;5017235;28;20041;-74
2023/03/21 08:55:15;;;;;;;0.00;0.00;;;9.50;94.90;;;;;;5000548;28;20046;-61
2023/03/21 08:57:42;;;;;;;0.00;0.00;;;9.70;95.70;;;;;;4999319;28;20057;-61
2023/03/21 09:00:12;;;;;;;0.00;0.00;;;10.10;95.50;;;;;;5018288;28;20545;-66
2023/03/21 09:02:42;;;;;;;0.00;0.00;;;10.30;95.10;;;;;;5015648;28;20042;-66
2023/03/21 09:05:10;;;;;;;0.05;0.05;;;10.20;94.80;;;;;;5017042;28;20050;-66
2023/03/21 09:07:37;;;;;;;0.10;0.10;;;10.10;94.60;;;;;;4997840;28;20525;-66
2023/03/21 09:10:07;;;;;;;0.05;0.05;;;10.10;94.60;;;;;;5018559;28;20041;-66
2023/03/21 09:12:33;;;;;;;0.00;0.00;;;10.00;94.50;;;;;;5025320;28;20029;-66
2023/03/21 09:15:01;;;;;;;0.00;0.00;;;10.00;94.50;;;;;;5026723;28;20413;-66
2023/03/21 09:17:28;;;;;;;0.00;0.00;;;10.00;94.50;;;;;;5015921;28;20053;-66
2023/03/21 09:19:53;;;;;;;0.00;0.00;;;10.00;94.40;;;;;;5019329;28;20053;-65
2023/03/21 09:22:20;;;;;;;0.22;0.22;;;10.00;94.40;;;;;;5025901;28;20056;-66
2023/03/21 09:24:47;;;;;;;0.00;0.00;;;9.90;94.30;;;;;;5016292;28;20057;-66
2023/03/21 09:27:16;;;;;;;0.00;0.00;;;9.90;94.30;;;;;;5022980;28;20068;-66
2023/03/21 09:29:43;;;;;;;0.85;0.85;;;9.90;94.30;;;;;;5011065;28;20081;-65
2023/03/21 09:32:11;;;;;;;0.57;0.57;;;9.90;94.20;;;;;;5023130;28;20061;-66
2023/03/21 09:34:39;;;;;;;0.30;0.30;;;9.90;94.10;;;;;;5027082;28;20064;-66
2023/03/21 09:37:08;;;;;;;0.10;0.10;;;9.90;94.20;;;;;;5004932;28;20119;-66
2023/03/21 09:39:35;;;;;;;0.10;0.10;;;9.90;94.00;;;;;;5027345;28;20041;-66
2023/03/21 09:42:23;;;;;;;0.00;0.00;;;9.90;94.10;;;;;;5025033;28;20463;-65
2023/03/21 09:45:43;;;;;;;0.17;0.17;;;9.80;94.10;;;;;;5027017;28;20037;-66
2023/03/21 09:48:25;;;;;;;0.10;0.10;;;9.80;94.10;;;;;;4965225;28;20050;-66
2023/03/21 09:50:51;;;;;;;0.00;0.00;;;9.90;94.10;;;;;;5009474;28;20115;-66
2023/03/21 09:53:29;;;;;;;0.00;0.00;;;9.90;94.10;;;;;;5011715;28;20038;-66
2023/03/21 09:55:55;;;;;;;0.00;0.00;;;10.00;94.20;;;;;;5006458;28;20144;-65
2023/03/21 09:58:42;;;;;;;0.00;0.00;;;10.00;94.00;;;;;;5004180;28;20124;-66
2023/03/21 10:01:33;;;;;;;0.05;0.05;;;10.10;94.10;;;;;;4996799;28;20419;-66
2023/03/21 10:04:04;;;;;;;0.00;0.00;;;10.10;94.10;;;;;;5004248;28;20106;-66
2023/03/21 10:06:30;;;;;;;5.93;2.33;;;10.20;94.00;;;;;;5007868;28;20050;-66
2023/03/21 10:09:15;;;;;;;0.30;0.30;;;10.20;94.00;;;;;;5006453;28;20126;-66
2023/03/21 10:11:49;;;;;;;0.10;0.10;;;10.20;93.80;;;;;;4999746;28;20572;-66
2023/03/21 10:14:20;;;;;;;0.10;0.10;;;10.20;93.90;;;;;;5004713;28;20056;-66
2023/03/21 10:16:54;;;;;;;0.22;0.22;;;10.30;93.90;;;;;;5004839;28;20805;-66
2023/03/21 10:19:20;;;;;;;0.00;0.00;;;10.30;93.90;;;;;;5007712;28;20537;-66
2023/03/21 10:21:47;;;;;;;1.00;0.90;;;10.40;93.80;;;;;;4988117;28;20063;-66
2023/03/21 10:24:17;;;;;;;0.25;0.25;;;10.40;93.70;;;;;;4999365;28;20096;-67
2023/03/21 10:26:44;;;;;;;0.00;0.00;;;10.50;93.70;;;;;;5001313;28;20050;-66
2023/03/21 10:29:13;;;;;;;0.10;0.10;;;10.60;93.70;;;;;;4991019;28;20136;-67
2023/03/21 10:31:41;;;;;;;0.00;0.00;;;10.60;93.70;;;;;;5001107;28;20046;-66
2023/03/21 10:34:28;;;;;;;0.88;0.68;;;10.80;93.80;;;;;;5005612;28;20041;-66
2023/03/21 10:36:54;;;;;;;1.40;1.30;;;10.90;93.70;;;;;;4986843;28;20054;-66
2023/03/21 10:39:30;;;;;;;0.00;0.00;;;10.90;93.50;;;;;;5004442;28;20030;-66
2023/03/21 10:41:56;;;;;;;0.00;0.00;;;11.00;93.70;;;;;;5008051;28;20526;-66
2023/03/21 10:44:29;;;;;;;0.00;0.00;;;11.10;93.30;;;;;;5007091;28;20084;-65
2023/03/21 10:47:06;;;;;;;0.00;0.00;;;11.10;93.10;;;;;;5013837;28;20057;-66
2023/03/21 10:49:32;;;;;;;0.00;0.00;;;11.10;92.90;;;;;;5027974;28;20549;-66
2023/03/21 10:52:02;;;;;;;0.00;0.00;;;11.10;92.80;;;;;;5023484;28;20136;-66
2023/03/21 10:54:30;;;;;;;0.00;0.00;;;11.10;92.60;;;;;;5026024;28;20056;-65
2023/03/21 10:57:04;;;;;;;0.00;0.00;;;11.10;92.60;;;;;;5028226;28;20053;-68
2023/03/21 10:59:52;;;;;;;0.00;0.00;;;11.10;92.50;;;;;;5028819;28;20156;-66
2023/03/21 11:02:29;;;;;;;0.00;0.00;;;11.10;92.20;;;;;;5014934;28;20045;-67
2023/03/21 11:04:55;;;;;;;0.00;0.00;;;11.10;92.00;;;;;;5008385;28;20053;-67
2023/03/21 11:07:24;;;;;;;0.00;0.00;;;11.20;91.90;;;;;;5013634;28;20046;-66
2023/03/21 11:09:58;;;;;;;0.00;0.00;;;11.20;91.50;;;;;;5008239;28;20042;-67
2023/03/21 11:12:38;;;;;;;0.22;0.22;;;11.20;91.30;;;;;;5023810;28;20402;-66
2023/03/21 11:15:34;;;;;;;0.90;0.73;;;11.30;91.60;;;;;;5027608;28;20041;-65
2023/03/21 11:18:14;;;;;;;0.10;0.10;;;11.30;91.40;;;;;;5017702;28;20092;-66
2023/03/21 11:20:48;;;;;;;0.08;0.08;;;11.30;91.40;;;;;;5023435;28;20049;-66
2023/03/21 11:23:13;;;;;;;0.00;0.00;;;11.30;91.40;;;;;;5022618;28;20037;-65
2023/03/21 11:25:41;;;;;;;0.00;0.00;;;11.30;91.10;;;;;;5027736;28;20057;-66
2023/03/21 11:28:20;;;;;;;0.65;0.65;;;11.30;91.20;;;;;;5027931;28;20453;-65
2023/03/21 11:30:57;;;;;;;0.10;0.10;;;11.40;90.80;;;;;;5028049;28;20111;-66
2023/03/21 11:33:32;;;;;;;0.52;0.52;;;11.30;90.70;;;;;;5008315;28;20128;-66
2023/03/21 11:36:06;;;;;;;0.00;0.00;;;11.40;90.80;;;;;;5009500;28;20673;-66
2023/03/21 11:38:36;;;;;;;0.00;0.00;;;11.40;90.60;;;;;;5026221;28;20038;-65
2023/03/21 11:41:04;;;;;;;0.00;0.00;;;11.40;90.50;;;;;;5027411;28;20049;-66
2023/03/21 11:43:37;;;;;;;0.00;0.00;;;11.40;90.30;;;;;;5010118;28;20125;-65
2023/03/21 11:46:03;;;;;;;0.10;0.10;;;11.40;89.80;;;;;;5030878;28;20069;-65
2023/03/21 11:48:32;;;;;;;0.57;0.57;;;11.30;89.40;;;;;;5030881;28;20050;-65
2023/03/21 11:51:03;;;;;;;0.25;0.25;;;11.40;89.50;;;;;;5030272;28;20049;-65
2023/03/21 11:53:50;;;;;;;0.13;0.13;;;11.30;89.30;;;;;;5031410;28;20041;-65
2023/03/21 11:56:36;;;;;;;0.00;0.00;;;11.30;89.30;;;;;;5029538;28;20104;-66
2023/03/21 11:59:23;;;;;;;0.03;0.03;;;11.20;88.90;;;;;;5031090;28;20560;-66
2023/03/21 12:01:59;;;;;;;0.00;0.00;;;11.20;89.00;;;;;;5024508;28;20086;-66
2023/03/21 12:04:30;;;;;;;0.00;0.00;;;11.30;88.80;;;;;;5030950;28;20037;-66
2023/03/21 12:07:15;;;;;;;0.00;0.00;;;11.20;89.00;;;;;;5030427;28;20050;-66
2023/03/21 12:09:51;;;;;;;0.00;0.00;;;11.30;89.10;;;;;;5013511;28;20045;-66
2023/03/21 12:12:54;;;;;;;0.00;0.00;;;11.30;89.10;;;;;;5030630;28;20395;-65
2023/03/21 12:15:29;;;;;;;0.00;0.00;;;11.40;88.60;;;;;;5031676;28;20418;-66
2023/03/21 12:18:17;;;;;;;0.00;0.00;;;11.50;88.60;;;;;;5031050;28;20578;-65
2023/03/21 12:20:58;;;;;;;1.25;1.15;;;11.50;88.10;;;;;;5030731;28;20053;-66
2023/03/21 12:23:45;;;;;;;0.10;0.10;;;11.60;87.70;;;;;;5031105;28;20045;-66
2023/03/21 12:26:17;;;;;;;0.80;0.70;;;11.60;87.30;;;;;;5010945;28;20050;-67
2023/03/21 12:28:48;;;;;;;0.15;0.15;;;11.60;87.00;;;;;;5026047;28;20037;-66
2023/03/21 12:31:19;;;;;;;1.48;0.85;;;11.70;87.20;;;;;;5030406;28;20463;-66
2023/03/21 12:33:45;;;;;;;0.00;0.00;;;11.70;87.20;;;;;;5031272;28;20049;-66
2023/03/21 12:36:29;;;;;;;0.00;0.00;;;11.70;87.10;;;;;;5030762;28;20045;-66
2023/03/21 12:39:14;;;;;;;2.75;1.75;;;11.80;87.10;;;;;;5029653;28;20042;-66
2023/03/21 12:41:55;;;;;;;0.10;0.10;;;11.90;87.30;;;;;;5030723;28;20049;-66
2023/03/21 12:44:22;;;;;;;0.08;0.08;;;11.90;86.80;;;;;;5031185;28;20045;-67
2023/03/21 12:46:59;;;;;;;0.22;0.22;;;11.80;86.10;;;;;;5028452;28;20050;-66
2023/03/21 12:49:37;;;;;;;4.03;3.70;;;11.90;86.10;;;;;;5012085;28;20049;-66
2023/03/21 12:52:15;;;;;;;0.00;0.00;;;11.80;86.20;;;;;;5011088;28;20080;-67
2023/03/21 12:54:47;;;;;;;0.65;0.65;;;11.90;86.40;;;;;;5025254;28;20136;-68
2023/03/21 12:57:25;;;;;;;0.00;0.00;;;12.00;86.60;;;;;;5030138;28;20586;-67
2023/03/21 13:00:12;;;;;;;0.00;0.00;;;12.10;85.90;;;;;;5030671;28;20046;-67
2023/03/21 13:03:17;;;;;;;0.55;0.55;;;12.10;85.40;;;;;;5030888;28;20042;-67
2023/03/21 13:05:57;;;;;;;0.00;0.00;;;12.10;85.60;;;;;;5010042;28;20049;-68
2023/03/21 13:08:30;;;;;;;0.13;0.13;;;12.00;85.40;;;;;;5019990;28;20073;-68
2023/03/21 13:10:57;;;;;;;0.28;0.28;;;12.10;85.50;;;;;;5029056;28;20052;-68
2023/03/21 13:13:35;;;;;;;0.00;0.00;;;12.10;85.20;;;;;;5017703;28;20554;-69
2023/03/21 13:16:15;;;;;;;0.55;0.55;;;12.10;85.30;;;;;;5017457;28;20062;-68